Time;durP1;ratioP1;P1;durP2;ratioP2;P2;SDS_P1;SDS_P2;PMS_P1;PMS_P2;Temp;Humidity;BMP_temperature;BMP_pressure;BME280_temperature;BME280_humidity;BME280_pressure;Samples;Min_cycle;Max_cycle;Signal;HPM_P1;HPM_P2
2023/08/15 00:01:14;;;;;;;1.77;1.23;;;23.30;65.60;;;;;;5052066;28;20179;-65
2023/08/15 00:03:40;;;;;;;1.55;1.10;;;23.30;65.60;;;;;;5052337;28;20171;-65
2023/08/15 00:06:05;;;;;;;1.88;1.35;;;23.20;65.60;;;;;;5051228;28;20188;-64
2023/08/15 00:08:31;;;;;;;2.08;1.27;;;23.30;65.60;;;;;;5052271;28;20250;-63
2023/08/15 00:10:57;;;;;;;2.05;1.52;;;23.20;65.60;;;;;;5051347;28;20179;-62
2023/08/15 00:13:22;;;;;;;2.22;1.52;;;23.30;66.60;;;;;;5052170;28;20176;-62
2023/08/15 00:15:48;;;;;;;1.77;1.23;;;23.20;65.60;;;;;;5052252;28;20195;-62
2023/08/15 00:18:13;;;;;;;1.30;1.20;;;23.20;65.60;;;;;;5051144;28;20176;-63
2023/08/15 00:20:39;;;;;;;2.03;1.33;;;23.20;65.60;;;;;;5052166;28;20171;-63
2023/08/15 00:23:04;;;;;;;1.58;1.40;;;23.20;65.60;;;;;;5051860;28;20175;-63
2023/08/15 00:25:30;;;;;;;2.88;1.38;;;23.20;65.60;;;;;;5051672;28;20538;-63
2023/08/15 00:27:55;;;;;;;3.03;1.60;;;23.20;65.60;;;;;;5052175;28;20665;-62
2023/08/15 00:30:21;;;;;;;2.72;1.33;;;23.20;65.60;;;;;;5051746;28;20554;-63
2023/08/15 00:32:47;;;;;;;1.50;1.40;;;23.20;65.60;;;;;;5051443;28;20583;-63
2023/08/15 00:35:12;;;;;;;1.20;1.10;;;23.20;65.60;;;;;;5054009;28;20646;-64
2023/08/15 00:37:38;;;;;;;1.70;1.60;;;23.20;65.60;;;;;;5055680;28;20667;-64
2023/08/15 00:40:04;;;;;;;1.65;1.38;;;23.20;65.70;;;;;;5053415;28;20536;-63
2023/08/15 00:42:30;;;;;;;1.52;1.20;;;23.20;65.70;;;;;;5055674;28;20274;-63
2023/08/15 00:44:56;;;;;;;1.58;1.38;;;23.20;65.70;;;;;;5055321;28;20310;-63
2023/08/15 00:47:21;;;;;;;2.20;1.58;;;23.20;66.50;;;;;;5054298;28;20656;-62
2023/08/15 00:49:47;;;;;;;1.40;1.30;;;23.20;65.60;;;;;;5055606;28;20171;-62
2023/08/15 00:52:13;;;;;;;2.42;1.27;;;23.20;65.60;;;;;;5054792;28;20177;-62
2023/08/15 00:54:45;;;;;;;2.13;1.52;;;23.20;65.70;;;;;;5054843;28;20328;-62
2023/08/15 00:57:10;;;;;;;1.58;1.48;;;23.20;65.60;;;;;;5053765;28;20737;-62
2023/08/15 00:59:36;;;;;;;1.80;1.50;;;23.20;66.50;;;;;;5054196;28;20258;-63
2023/08/15 01:02:02;;;;;;;1.85;1.40;;;23.20;65.60;;;;;;5054381;28;20567;-63
2023/08/15 01:04:27;;;;;;;1.50;1.38;;;23.10;65.60;;;;;;5037546;28;20179;-63
2023/08/15 01:06:53;;;;;;;1.52;1.30;;;23.10;66.40;;;;;;5053811;28;20197;-63
2023/08/15 01:09:18;;;;;;;1.50;1.40;;;23.20;65.70;;;;;;5053006;28;20206;-62
2023/08/15 01:12:21;;;;;;;4.03;1.83;;;23.10;65.60;;;;;;5055204;28;20182;-62
2023/08/15 01:14:57;;;;;;;2.40;1.40;;;23.10;65.60;;;;;;5050498;28;20210;-61
2023/08/15 01:17:47;;;;;;;2.00;1.60;;;23.10;65.60;;;;;;5053613;28;20222;-62
2023/08/15 01:20:15;;;;;;;2.58;1.65;;;23.10;66.40;;;;;;5053533;28;20175;-62
2023/08/15 01:22:43;;;;;;;1.40;1.30;;;23.10;65.60;;;;;;5054228;28;20186;-62
2023/08/15 01:25:08;;;;;;;1.45;1.20;;;23.10;65.60;;;;;;5053335;28;20171;-62
2023/08/15 01:27:34;;;;;;;1.52;1.42;;;23.10;65.60;;;;;;5054867;28;20179;-62
2023/08/15 01:30:00;;;;;;;1.40;1.30;;;23.10;65.60;;;;;;5053685;28;20262;-62
2023/08/15 01:32:31;;;;;;;1.65;1.35;;;23.10;65.60;;;;;;5054699;28;20182;-62
2023/08/15 01:35:05;;;;;;;2.65;1.67;;;23.10;65.70;;;;;;5054779;28;20178;-63
2023/08/15 01:37:30;;;;;;;1.55;1.45;;;23.10;65.70;;;;;;5052597;28;20697;-63
2023/08/15 01:39:57;;;;;;;1.75;1.48;;;23.10;65.70;;;;;;5054278;28;20188;-63
2023/08/15 01:42:23;;;;;;;2.05;1.75;;;23.10;66.40;;;;;;5053680;28;20187;-64
2023/08/15 01:44:48;;;;;;;1.92;1.75;;;23.10;65.60;;;;;;5052965;28;20223;-65
2023/08/15 01:47:14;;;;;;;1.40;1.30;;;23.10;65.70;;;;;;5052058;28;20176;-64
2023/08/15 01:49:40;;;;;;;1.90;1.75;;;23.10;65.70;;;;;;5052541;28;20270;-64
2023/08/15 01:52:05;;;;;;;2.30;1.55;;;23.10;65.70;;;;;;5053881;28;20634;-63
2023/08/15 01:54:31;;;;;;;1.63;1.52;;;23.10;65.70;;;;;;5054257;28;20228;-63
2023/08/15 01:56:56;;;;;;;1.88;1.77;;;23.10;66.50;;;;;;5053235;28;20203;-63
2023/08/15 01:59:22;;;;;;;1.98;1.83;;;23.10;65.70;;;;;;5054037;28;20757;-64
2023/08/15 02:01:47;;;;;;;2.17;1.50;;;23.10;65.70;;;;;;5054320;28;20183;-65
2023/08/15 02:04:13;;;;;;;1.55;1.45;;;23.10;65.70;;;;;;5053112;28;20630;-64
2023/08/15 02:06:38;;;;;;;1.52;1.42;;;23.10;65.70;;;;;;5054110;28;20175;-64
2023/08/15 02:09:04;;;;;;;1.60;1.50;;;23.10;65.70;;;;;;5053683;28;20521;-63
2023/08/15 02:11:30;;;;;;;1.88;1.63;;;23.10;65.70;;;;;;5053184;28;20175;-63
2023/08/15 02:13:56;;;;;;;1.95;1.60;;;23.10;65.70;;;;;;5054064;28;20185;-62
2023/08/15 02:16:22;;;;;;;2.10;1.58;;;23.10;65.70;;;;;;5053382;28;20221;-62
2023/08/15 02:18:48;;;;;;;4.05;1.73;;;23.00;65.70;;;;;;5053108;28;20262;-63
2023/08/15 02:21:13;;;;;;;1.73;1.48;;;23.10;65.70;;;;;;5053489;28;20211;-63
2023/08/15 02:23:39;;;;;;;2.05;1.70;;;23.10;65.80;;;;;;5053411;28;20258;-63
2023/08/15 02:26:05;;;;;;;1.67;1.58;;;23.00;65.70;;;;;;5052344;28;20171;-62
2023/08/15 02:28:31;;;;;;;2.65;1.90;;;23.10;65.80;;;;;;5053795;28;20187;-63
2023/08/15 02:30:56;;;;;;;3.05;1.70;;;23.10;65.80;;;;;;5053757;28;20240;-62
2023/08/15 02:33:22;;;;;;;2.00;1.80;;;23.00;65.80;;;;;;5052606;28;20179;-63
2023/08/15 02:35:50;;;;;;;2.67;1.85;;;23.00;65.80;;;;;;5053467;28;20650;-64
2023/08/15 02:38:15;;;;;;;2.08;1.80;;;23.00;65.80;;;;;;5053085;28;20187;-63
2023/08/15 02:40:42;;;;;;;2.05;1.95;;;23.00;65.80;;;;;;5052527;28;20641;-63
2023/08/15 02:43:07;;;;;;;2.60;1.80;;;23.10;65.90;;;;;;5053019;28;20191;-62
2023/08/15 02:45:33;;;;;;;2.03;1.67;;;23.00;65.80;;;;;;5053113;28;20187;-62
2023/08/15 02:47:58;;;;;;;2.00;1.67;;;23.00;65.90;;;;;;5052611;28;20175;-62
2023/08/15 02:50:24;;;;;;;1.83;1.63;;;23.00;65.80;;;;;;5053282;28;20182;-62
2023/08/15 02:52:50;;;;;;;1.90;1.80;;;23.00;65.80;;;;;;5052311;28;20179;-61
2023/08/15 02:55:15;;;;;;;1.70;1.58;;;23.00;65.90;;;;;;5052691;28;20190;-61
2023/08/15 02:57:41;;;;;;;1.85;1.75;;;23.00;65.80;;;;;;5053278;28;20542;-63
2023/08/15 03:00:07;;;;;;;1.77;1.67;;;23.00;65.80;;;;;;5051991;28;20224;-62
2023/08/15 03:02:33;;;;;;;2.88;1.60;;;23.00;65.90;;;;;;5053173;28;20182;-63
2023/08/15 03:04:59;;;;;;;1.52;1.42;;;23.00;65.80;;;;;;5052919;28;20179;-63
2023/08/15 03:07:25;;;;;;;1.90;1.80;;;23.00;65.80;;;;;;5052197;28;20289;-62
2023/08/15 03:09:50;;;;;;;1.52;1.42;;;23.00;65.90;;;;;;5052926;28;20183;-62
2023/08/15 03:12:16;;;;;;;1.80;1.70;;;23.00;65.80;;;;;;5052518;28;20250;-61
2023/08/15 03:14:41;;;;;;;1.95;1.65;;;23.00;65.90;;;;;;5052277;28;20175;-62
2023/08/15 03:17:07;;;;;;;2.05;1.83;;;23.00;65.90;;;;;;5052288;28;20210;-62
2023/08/15 03:19:33;;;;;;;1.85;1.70;;;23.00;65.90;;;;;;5052924;28;20199;-62
2023/08/15 03:21:58;;;;;;;3.30;1.85;;;23.00;65.90;;;;;;5051882;28;20198;-63
2023/08/15 03:24:27;;;;;;;1.92;1.63;;;23.00;65.90;;;;;;5052670;28;20534;-62
2023/08/15 03:26:52;;;;;;;2.17;1.98;;;23.00;65.90;;;;;;5052956;28;20218;-62
2023/08/15 03:29:18;;;;;;;2.00;1.77;;;23.00;66.70;;;;;;5051814;28;20199;-61
2023/08/15 03:31:43;;;;;;;2.33;1.90;;;23.00;65.90;;;;;;5052591;28;20175;-62
2023/08/15 03:34:09;;;;;;;1.60;1.42;;;23.00;65.90;;;;;;5052274;28;20163;-63
2023/08/15 03:36:34;;;;;;;2.00;1.80;;;23.00;65.90;;;;;;5051766;28;20214;-63
2023/08/15 03:39:00;;;;;;;3.15;2.10;;;23.00;66.80;;;;;;5052227;28;20167;-63
2023/08/15 03:41:25;;;;;;;2.13;1.92;;;23.00;65.90;;;;;;5052475;28;20199;-63
2023/08/15 03:43:51;;;;;;;2.53;1.92;;;23.00;66.00;;;;;;5051686;28;20218;-63
2023/08/15 03:46:18;;;;;;;1.98;1.63;;;23.00;66.00;;;;;;5052280;28;20605;-63
2023/08/15 03:48:44;;;;;;;2.20;2.00;;;23.00;66.00;;;;;;5052451;28;20186;-62
2023/08/15 03:51:09;;;;;;;2.20;2.00;;;23.00;66.00;;;;;;5051585;28;20167;-62
2023/08/15 03:53:35;;;;;;;2.03;1.83;;;23.00;66.00;;;;;;5052449;28;20271;-62
2023/08/15 03:56:01;;;;;;;2.03;1.92;;;22.90;65.90;;;;;;5051804;28;20221;-62
2023/08/15 03:58:26;;;;;;;2.28;1.90;;;23.00;66.00;;;;;;5052225;28;20262;-63
2023/08/15 04:00:52;;;;;;;2.20;2.00;;;23.00;66.00;;;;;;5052439;28;20172;-63
2023/08/15 04:03:18;;;;;;;1.85;1.75;;;22.90;65.90;;;;;;5051442;28;20179;-63
2023/08/15 04:05:44;;;;;;;2.00;1.80;;;23.00;66.00;;;;;;5052361;28;20225;-63
2023/08/15 04:08:10;;;;;;;2.13;1.92;;;23.00;65.90;;;;;;5051869;28;20179;-62
2023/08/15 04:10:39;;;;;;;2.30;2.15;;;22.90;66.70;;;;;;5054664;28;20175;-62
2023/08/15 04:13:08;;;;;;;2.22;2.03;;;23.00;66.00;;;;;;5055992;28;20190;-62
2023/08/15 04:15:35;;;;;;;2.63;1.85;;;23.00;66.00;;;;;;5055997;28;20280;-63
2023/08/15 04:18:01;;;;;;;2.33;1.88;;;22.90;65.90;;;;;;5055026;28;20179;-63
2023/08/15 04:20:26;;;;;;;2.42;2.00;;;22.90;65.80;;;;;;5055866;28;20171;-63
2023/08/15 04:22:52;;;;;;;2.25;2.05;;;23.00;66.00;;;;;;5055826;28;20587;-63
2023/08/15 04:25:18;;;;;;;2.05;1.85;;;22.90;65.90;;;;;;5055065;28;20660;-63
2023/08/15 04:27:43;;;;;;;1.75;1.60;;;22.90;65.90;;;;;;5055592;28;20189;-63
2023/08/15 04:30:09;;;;;;;2.25;2.05;;;22.90;66.80;;;;;;5055434;28;20198;-62
2023/08/15 04:32:35;;;;;;;2.00;1.80;;;22.90;65.90;;;;;;5055048;28;20179;-63
2023/08/15 04:35:00;;;;;;;2.28;1.90;;;22.90;65.90;;;;;;5055318;28;20216;-63
2023/08/15 04:37:26;;;;;;;2.40;2.08;;;22.90;65.90;;;;;;5055558;28;20256;-64
2023/08/15 04:39:51;;;;;;;2.88;2.17;;;22.90;65.80;;;;;;5055100;28;20520;-64
2023/08/15 04:42:17;;;;;;;1.88;1.65;;;22.90;65.90;;;;;;5055482;28;20781;-64
2023/08/15 04:44:42;;;;;;;2.33;2.13;;;22.90;66.70;;;;;;5055374;28;20583;-64
2023/08/15 04:47:08;;;;;;;2.60;2.13;;;22.90;65.90;;;;;;5054176;28;20167;-63
2023/08/15 04:49:33;;;;;;;1.70;1.60;;;22.90;65.90;;;;;;5055395;28;20171;-63
2023/08/15 04:52:00;;;;;;;2.50;2.30;;;22.90;65.90;;;;;;5055200;28;20182;-63
2023/08/15 04:54:26;;;;;;;2.97;1.90;;;22.90;65.90;;;;;;5054503;28;20186;-63
2023/08/15 04:56:52;;;;;;;1.90;1.80;;;22.90;65.90;;;;;;5055318;28;20219;-64
2023/08/15 04:59:18;;;;;;;2.50;2.13;;;22.90;66.80;;;;;;5054466;28;20225;-64
2023/08/15 05:01:44;;;;;;;2.30;2.10;;;22.90;65.90;;;;;;5055150;28;20172;-65
2023/08/15 05:04:10;;;;;;;2.40;1.88;;;22.90;65.90;;;;;;5054829;28;20174;-64
2023/08/15 05:06:35;;;;;;;2.30;2.10;;;22.90;65.90;;;;;;5054410;28;20236;-64
2023/08/15 05:09:01;;;;;;;2.13;1.95;;;22.90;65.90;;;;;;5055012;28;20170;-64
2023/08/15 05:11:26;;;;;;;2.08;1.98;;;22.90;65.80;;;;;;5055195;28;20175;-63
2023/08/15 05:13:52;;;;;;;2.05;1.77;;;22.90;65.90;;;;;;5054371;28;20370;-64
2023/08/15 05:16:17;;;;;;;2.30;2.10;;;22.90;65.90;;;;;;5054448;28;20211;-63
2023/08/15 05:18:43;;;;;;;2.22;1.95;;;22.90;65.90;;;;;;5054894;28;20186;-63
2023/08/15 05:21:08;;;;;;;1.88;1.77;;;22.90;65.90;;;;;;5052466;28;20280;-64
2023/08/15 05:23:35;;;;;;;2.63;2.20;;;22.90;65.80;;;;;;5054783;28;20563;-63
2023/08/15 05:26:00;;;;;;;2.53;1.80;;;22.90;65.90;;;;;;5054692;28;20175;-63
2023/08/15 05:28:26;;;;;;;2.95;2.10;;;22.90;66.70;;;;;;5053964;28;20177;-63
2023/08/15 05:30:51;;;;;;;2.50;1.80;;;22.80;66.70;;;;;;5054828;28;20253;-63
2023/08/15 05:33:17;;;;;;;1.80;1.70;;;22.90;65.90;;;;;;5054296;28;20175;-64
2023/08/15 05:35:42;;;;;;;2.25;2.10;;;22.90;65.80;;;;;;5053552;28;20219;-65
2023/08/15 05:38:08;;;;;;;2.92;1.90;;;22.90;65.90;;;;;;5054157;28;20171;-65
2023/08/15 05:40:33;;;;;;;2.97;1.90;;;22.90;65.80;;;;;;5054459;28;20266;-65
2023/08/15 05:42:59;;;;;;;2.28;2.08;;;22.90;65.80;;;;;;5053594;28;20174;-65
2023/08/15 05:45:24;;;;;;;1.98;1.77;;;22.90;65.80;;;;;;5053943;28;20693;-64
2023/08/15 05:47:50;;;;;;;2.20;1.80;;;22.90;65.80;;;;;;5054184;28;20198;-63
2023/08/15 05:50:16;;;;;;;1.95;1.83;;;22.90;65.80;;;;;;5053318;28;20182;-63
2023/08/15 05:52:41;;;;;;;2.33;2.13;;;22.90;65.80;;;;;;5054202;28;20179;-63
2023/08/15 05:55:07;;;;;;;2.35;1.70;;;22.90;65.70;;;;;;5053759;28;20258;-63
2023/08/15 05:57:33;;;;;;;1.95;1.75;;;22.90;65.70;;;;;;5053384;28;20251;-63
2023/08/15 05:59:58;;;;;;;1.92;1.77;;;22.90;65.60;;;;;;5053912;28;20190;-64
2023/08/15 06:02:24;;;;;;;1.95;1.85;;;22.90;65.70;;;;;;5054126;28;20229;-65
2023/08/15 06:04:49;;;;;;;1.83;1.73;;;22.90;65.60;;;;;;5053277;28;20179;-65
2023/08/15 06:07:15;;;;;;;2.40;2.00;;;22.90;65.60;;;;;;5053570;28;20183;-64
2023/08/15 06:09:41;;;;;;;1.80;1.70;;;23.00;65.70;;;;;;5053481;28;20173;-63
2023/08/15 06:12:06;;;;;;;1.55;1.50;;;23.00;65.70;;;;;;5053660;28;20175;-63
2023/08/15 06:14:33;;;;;;;1.73;1.63;;;23.00;65.70;;;;;;5053939;28;20540;-63
2023/08/15 06:16:59;;;;;;;2.63;1.83;;;23.00;66.50;;;;;;5053007;28;20249;-63
2023/08/15 06:19:24;;;;;;;2.00;1.77;;;23.00;65.70;;;;;;5053604;28;20171;-63
2023/08/15 06:21:50;;;;;;;2.10;1.70;;;23.00;65.60;;;;;;5053944;28;20175;-63
2023/08/15 06:24:16;;;;;;;2.78;1.73;;;23.00;65.70;;;;;;5052695;28;20175;-64
2023/08/15 06:26:41;;;;;;;1.65;1.55;;;23.00;65.60;;;;;;5053520;28;20175;-63
2023/08/15 06:29:07;;;;;;;1.70;1.60;;;23.00;65.60;;;;;;5053258;28;20285;-63
2023/08/15 06:31:33;;;;;;;3.17;2.00;;;23.00;65.60;;;;;;5052542;28;20610;-64
2023/08/15 06:34:00;;;;;;;1.83;1.73;;;23.00;65.70;;;;;;5053201;28;20214;-64
2023/08/15 06:36:25;;;;;;;2.30;1.75;;;23.00;65.70;;;;;;5053227;28;20207;-65
2023/08/15 06:38:51;;;;;;;2.28;1.88;;;23.00;65.70;;;;;;5052819;28;20187;-65
2023/08/15 06:41:16;;;;;;;2.85;2.13;;;23.00;65.70;;;;;;5052934;28;20167;-64
2023/08/15 06:43:43;;;;;;;2.47;2.03;;;23.00;65.60;;;;;;5053425;28;20325;-64
2023/08/15 06:46:09;;;;;;;1.77;1.67;;;23.00;65.50;;;;;;5052415;28;20179;-63
2023/08/15 06:48:34;;;;;;;1.80;1.70;;;23.00;65.50;;;;;;5053229;28;20324;-63
2023/08/15 06:51:00;;;;;;;1.75;1.60;;;23.10;65.50;;;;;;5053012;28;20668;-63
2023/08/15 06:53:25;;;;;;;1.88;1.77;;;23.10;65.50;;;;;;5052499;28;20646;-63
2023/08/15 06:55:51;;;;;;;2.03;1.70;;;23.10;65.60;;;;;;5053006;28;20210;-63
2023/08/15 06:58:17;;;;;;;1.73;1.63;;;23.10;65.60;;;;;;5052856;28;20207;-63
2023/08/15 07:00:45;;;;;;;2.65;2.00;;;23.10;65.50;;;;;;5052315;28;20253;-65
2023/08/15 07:03:12;;;;;;;2.17;1.88;;;23.10;65.40;;;;;;5052676;28;20179;-64
2023/08/15 07:05:37;;;;;;;2.20;2.00;;;23.10;65.50;;;;;;5053148;28;20183;-64
2023/08/15 07:08:03;;;;;;;3.00;1.75;;;23.20;65.50;;;;;;5052194;28;20178;-63
2023/08/15 07:10:30;;;;;;;1.70;1.60;;;23.20;65.50;;;;;;5053032;28;20225;-63
2023/08/15 07:12:55;;;;;;;2.08;1.88;;;23.20;65.50;;;;;;5052180;28;20178;-63
2023/08/15 07:15:21;;;;;;;2.33;1.80;;;23.20;65.50;;;;;;5052454;28;20183;-63
2023/08/15 07:17:46;;;;;;;2.20;1.80;;;23.20;65.40;;;;;;5052811;28;20176;-63
2023/08/15 07:20:14;;;;;;;3.50;1.83;;;23.20;65.40;;;;;;5052033;28;20754;-63
2023/08/15 07:22:40;;;;;;;2.10;1.58;;;23.20;65.40;;;;;;5052940;28;20202;-67
2023/08/15 07:25:06;;;;;;;2.42;1.90;;;23.20;65.40;;;;;;5052542;28;20695;-64
2023/08/15 07:27:32;;;;;;;2.22;1.60;;;23.30;65.40;;;;;;5052097;28;20173;-65
2023/08/15 07:29:58;;;;;;;4.00;1.98;;;23.30;65.50;;;;;;5052543;28;20170;-64
2023/08/15 07:32:23;;;;;;;4.13;1.92;;;23.30;65.50;;;;;;5052559;28;20182;-65
2023/08/15 07:34:49;;;;;;;2.28;2.08;;;23.40;65.50;;;;;;5052239;28;20175;-66
2023/08/15 07:37:15;;;;;;;2.90;1.90;;;23.40;65.40;;;;;;5052449;28;20695;-65
2023/08/15 07:39:40;;;;;;;3.47;2.17;;;23.40;65.50;;;;;;5052644;28;20186;-65
2023/08/15 07:42:06;;;;;;;2.65;2.20;;;23.40;65.60;;;;;;5050957;28;20175;-65
2023/08/15 07:44:32;;;;;;;4.25;2.25;;;23.40;65.50;;;;;;5053626;28;20265;-65
2023/08/15 07:46:57;;;;;;;3.05;2.03;;;23.40;65.40;;;;;;5056076;28;20194;-66
2023/08/15 07:49:23;;;;;;;5.97;2.15;;;23.40;65.40;;;;;;5055366;28;20171;-65
2023/08/15 07:51:48;;;;;;;4.03;2.00;;;23.50;65.50;;;;;;5056356;28;20171;-65
2023/08/15 07:54:14;;;;;;;2.13;1.80;;;23.50;65.50;;;;;;5055943;28;20179;-65
2023/08/15 07:56:39;;;;;;;3.30;2.05;;;23.50;65.40;;;;;;5055466;28;20206;-65
2023/08/15 07:59:05;;;;;;;5.43;2.28;;;23.50;65.50;;;;;;5056097;28;20258;-66
2023/08/15 08:01:31;;;;;;;5.30;2.13;;;23.60;65.50;;;;;;5056337;28;20202;-66
2023/08/15 08:03:57;;;;;;;3.42;2.00;;;23.60;65.60;;;;;;5055851;28;20214;-66
2023/08/15 08:06:22;;;;;;;4.35;2.08;;;23.60;65.50;;;;;;5056072;28;20175;-65
2023/08/15 08:08:48;;;;;;;5.13;2.22;;;23.60;65.40;;;;;;5056109;28;20171;-64
2023/08/15 08:11:13;;;;;;;4.28;2.00;;;23.60;65.60;;;;;;5055173;28;20187;-64
2023/08/15 08:13:39;;;;;;;3.38;1.75;;;23.60;65.70;;;;;;5055982;28;20175;-64
2023/08/15 08:16:05;;;;;;;2.78;1.77;;;23.50;65.70;;;;;;5055645;28;20239;-64
2023/08/15 08:18:30;;;;;;;6.72;2.50;;;23.50;65.80;;;;;;5055679;28;20648;-65
2023/08/15 08:20:56;;;;;;;3.90;1.83;;;23.50;65.80;;;;;;5056180;28;20250;-65
2023/08/15 08:23:23;;;;;;;4.90;2.00;;;23.50;65.80;;;;;;5054965;28;20175;-65
2023/08/15 08:25:49;;;;;;;2.50;1.73;;;23.50;65.80;;;;;;5056088;28;20229;-64
2023/08/15 08:28:14;;;;;;;3.85;2.03;;;23.50;65.70;;;;;;5055680;28;20179;-65
2023/08/15 08:30:42;;;;;;;3.17;1.98;;;23.60;65.70;;;;;;5054902;28;20171;-64
2023/08/15 08:33:09;;;;;;;3.13;1.92;;;23.60;65.70;;;;;;5055634;28;20182;-65
2023/08/15 08:35:35;;;;;;;1.70;1.38;;;23.60;65.60;;;;;;5055911;28;20250;-65
2023/08/15 08:38:00;;;;;;;3.13;1.92;;;23.60;65.60;;;;;;5054932;28;20207;-65
2023/08/15 08:40:27;;;;;;;3.97;1.90;;;23.60;65.60;;;;;;5055540;28;20178;-66
2023/08/15 08:42:52;;;;;;;2.92;2.13;;;23.60;65.60;;;;;;5055622;28;20183;-65
2023/08/15 08:45:18;;;;;;;3.30;2.00;;;23.60;65.70;;;;;;5054331;28;20223;-65
2023/08/15 08:47:43;;;;;;;5.25;2.03;;;23.60;65.70;;;;;;5054528;28;20178;-65
2023/08/15 08:50:10;;;;;;;3.53;1.90;;;23.60;65.80;;;;;;5054104;28;20171;-64
2023/08/15 08:52:39;;;;;;;3.00;2.00;;;23.60;65.50;;;;;;5054644;28;20221;-64
2023/08/15 08:55:05;;;;;;;5.90;2.08;;;23.70;66.40;;;;;;5053553;28;20206;-64
2023/08/15 08:57:31;;;;;;;4.25;1.67;;;23.70;65.60;;;;;;5055186;28;20246;-65
2023/08/15 08:59:57;;;;;;;5.95;2.75;;;23.60;65.60;;;;;;5053281;28;20174;-65
2023/08/15 09:02:22;;;;;;;5.07;2.28;;;23.60;65.60;;;;;;5053879;28;20272;-65
2023/08/15 09:04:48;;;;;;;2.50;1.85;;;23.70;65.50;;;;;;5055349;28;20299;-65
2023/08/15 09:07:15;;;;;;;2.85;2.05;;;23.70;65.50;;;;;;5054024;28;20172;-64
2023/08/15 09:09:41;;;;;;;2.70;1.85;;;23.70;65.50;;;;;;5053664;28;20175;-64
2023/08/15 09:12:06;;;;;;;2.92;1.80;;;23.70;65.60;;;;;;5054413;28;20186;-64
2023/08/15 09:14:33;;;;;;;3.25;1.70;;;23.70;65.60;;;;;;5054228;28;20182;-65
2023/08/15 09:16:58;;;;;;;2.50;1.67;;;23.60;65.60;;;;;;5053687;28;20292;-65
2023/08/15 09:19:24;;;;;;;2.60;1.90;;;23.60;65.80;;;;;;5057739;28;20211;-64
2023/08/15 09:21:50;;;;;;;2.63;1.67;;;23.60;65.90;;;;;;5058597;28;20182;-65
2023/08/15 09:24:15;;;;;;;2.85;2.10;;;23.60;65.90;;;;;;5071525;28;20617;-65
2023/08/15 09:26:41;;;;;;;1.92;1.60;;;23.50;65.90;;;;;;5072230;28;20175;-65
2023/08/15 09:29:06;;;;;;;4.03;1.80;;;23.60;66.00;;;;;;5054369;28;20178;-64
2023/08/15 09:31:32;;;;;;;2.72;1.73;;;23.60;66.00;;;;;;5054912;28;20179;-65
2023/08/15 09:33:57;;;;;;;2.08;1.88;;;23.60;65.90;;;;;;5053922;28;20509;-65
2023/08/15 09:36:23;;;;;;;4.70;1.73;;;23.60;65.80;;;;;;5065810;28;20661;-65
2023/08/15 09:38:51;;;;;;;3.22;1.77;;;23.60;65.90;;;;;;5074559;28;20261;-65
2023/08/15 09:41:16;;;;;;;2.03;1.75;;;23.60;65.80;;;;;;5073535;28;20183;-65
2023/08/15 09:43:50;;;;;;;3.30;1.90;;;23.60;65.80;;;;;;5072747;28;20214;-65
2023/08/15 09:46:19;;;;;;;2.08;1.73;;;23.70;65.70;;;;;;5074316;28;20173;-65
2023/08/15 09:48:46;;;;;;;2.90;2.00;;;23.70;65.60;;;;;;5073526;28;20261;-64
2023/08/15 09:51:13;;;;;;;3.17;1.80;;;23.70;65.60;;;;;;5074071;28;20195;-63
2023/08/15 09:53:41;;;;;;;5.30;2.25;;;23.70;65.50;;;;;;5061109;28;20646;-64
2023/08/15 09:56:08;;;;;;;1.98;1.63;;;23.70;65.50;;;;;;5035616;28;20195;-64
2023/08/15 09:58:34;;;;;;;2.88;1.67;;;23.70;65.50;;;;;;5054387;28;20246;-64
2023/08/15 10:00:59;;;;;;;2.95;2.03;;;23.80;65.50;;;;;;5053800;28;20572;-65
2023/08/15 10:03:31;;;;;;;3.67;1.70;;;23.80;65.20;;;;;;5052155;28;20178;-65
2023/08/15 10:05:57;;;;;;;2.25;1.65;;;23.80;65.20;;;;;;5053023;28;20183;-65
2023/08/15 10:08:23;;;;;;;1.75;1.65;;;23.90;65.10;;;;;;5053231;28;20592;-65
2023/08/15 10:10:50;;;;;;;1.92;1.63;;;23.90;64.90;;;;;;5053154;28;20179;-65
2023/08/15 10:13:16;;;;;;;2.90;1.98;;;24.00;65.00;;;;;;5053732;28;20292;-64
2023/08/15 10:15:41;;;;;;;3.05;1.70;;;24.00;65.00;;;;;;5052327;28;20182;-65
2023/08/15 10:18:07;;;;;;;2.95;1.75;;;24.00;65.10;;;;;;5053283;28;20179;-65
2023/08/15 10:20:36;;;;;;;2.92;1.50;;;23.90;65.10;;;;;;5052565;28;20190;-66
2023/08/15 10:23:02;;;;;;;2.17;1.45;;;23.90;65.40;;;;;;5052935;28;20240;-66
2023/08/15 10:25:27;;;;;;;2.92;1.73;;;23.80;65.40;;;;;;5053712;28;20187;-65
2023/08/15 10:27:54;;;;;;;2.10;1.65;;;23.80;65.50;;;;;;5053806;28;20630;-65
2023/08/15 10:30:30;;;;;;;2.90;1.73;;;23.80;65.60;;;;;;5052790;28;20175;-65
2023/08/15 10:32:59;;;;;;;6.88;2.40;;;23.80;65.60;;;;;;5053334;28;20202;-65
2023/08/15 10:35:25;;;;;;;4.10;2.33;;;23.80;65.80;;;;;;5053310;28;20262;-66
2023/08/15 10:37:50;;;;;;;5.80;2.83;;;23.80;65.80;;;;;;5052583;28;20306;-66
2023/08/15 10:40:17;;;;;;;4.53;2.40;;;23.80;66.00;;;;;;5053181;28;20174;-66
2023/08/15 10:43:00;;;;;;;5.60;2.80;;;23.80;65.90;;;;;;5053536;28;20249;-67
2023/08/15 10:45:26;;;;;;;5.70;2.47;;;23.80;65.90;;;;;;5052311;28;20288;-66
2023/08/15 10:47:55;;;;;;;4.75;2.60;;;23.90;65.90;;;;;;5053323;28;20179;-66
2023/08/15 10:50:22;;;;;;;10.95;3.25;;;23.90;65.80;;;;;;5052886;28;20268;-65
2023/08/15 10:53:08;;;;;;;4.20;2.75;;;23.90;65.80;;;;;;5052413;28;20209;-65
2023/08/15 10:55:36;;;;;;;5.35;2.72;;;23.90;65.80;;;;;;5052827;28;20179;-65
2023/08/15 10:58:09;;;;;;;5.90;2.75;;;24.00;65.90;;;;;;5052193;28;20737;-65
2023/08/15 11:00:36;;;;;;;7.93;3.00;;;24.00;65.70;;;;;;5053065;28;20178;-67
2023/08/15 11:03:02;;;;;;;11.15;2.42;;;24.00;65.60;;;;;;5052754;28;20206;-64
2023/08/15 11:05:40;;;;;;;5.72;2.67;;;24.00;66.50;;;;;;5052207;28;20194;-66
2023/08/15 11:08:23;;;;;;;7.50;3.15;;;24.10;65.60;;;;;;5052568;28;20634;-66
2023/08/15 11:10:50;;;;;;;6.20;2.47;;;24.10;66.30;;;;;;5053066;28;20171;-65
2023/08/15 11:13:16;;;;;;;6.40;3.22;;;24.10;65.40;;;;;;5051952;28;20207;-64
2023/08/15 11:15:45;;;;;;;4.38;2.90;;;24.10;65.50;;;;;;5053019;28;20179;-66
2023/08/15 11:18:11;;;;;;;5.25;2.28;;;24.20;65.60;;;;;;5052814;28;20174;-65
2023/08/15 11:20:37;;;;;;;5.60;2.38;;;24.20;65.40;;;;;;5052226;28;20174;-65
2023/08/15 11:23:03;;;;;;;5.35;2.30;;;24.20;65.50;;;;;;5052609;28;20249;-66
2023/08/15 11:25:28;;;;;;;6.55;2.78;;;24.20;65.60;;;;;;5053002;28;20633;-66
2023/08/15 11:27:54;;;;;;;4.50;2.75;;;24.20;65.60;;;;;;5052000;28;20178;-65
2023/08/15 11:30:20;;;;;;;3.97;2.55;;;24.20;65.50;;;;;;5052465;28;20660;-64
2023/08/15 11:32:45;;;;;;;5.10;2.42;;;24.20;65.60;;;;;;5052843;28;20171;-63
2023/08/15 11:35:11;;;;;;;5.30;2.75;;;24.30;65.50;;;;;;5051766;28;20248;-65
2023/08/15 11:37:37;;;;;;;5.25;2.90;;;24.30;65.50;;;;;;5052556;28;20242;-68
2023/08/15 11:40:04;;;;;;;5.97;2.33;;;24.40;65.40;;;;;;5052367;28;20178;-65
2023/08/15 11:42:29;;;;;;;8.30;2.75;;;24.40;65.40;;;;;;5052006;28;20173;-67
2023/08/15 11:45:21;;;;;;;4.35;2.45;;;24.40;65.50;;;;;;5052589;28;20227;-66
2023/08/15 11:47:54;;;;;;;5.00;2.53;;;24.40;65.40;;;;;;5050520;28;20713;-66
2023/08/15 11:50:19;;;;;;;5.60;2.95;;;24.40;65.30;;;;;;5052073;28;20179;-63
2023/08/15 11:52:45;;;;;;;4.10;2.55;;;24.50;65.30;;;;;;5052447;28;20190;-63
2023/08/15 11:55:11;;;;;;;3.72;2.55;;;24.50;65.20;;;;;;5051686;28;20182;-63
2023/08/15 11:57:36;;;;;;;4.65;2.90;;;24.50;65.00;;;;;;5052519;28;20215;-63
2023/08/15 12:00:03;;;;;;;6.72;2.78;;;24.50;65.20;;;;;;5052270;28;20224;-64
2023/08/15 12:02:29;;;;;;;5.45;2.50;;;24.50;65.50;;;;;;5051825;28;20182;-64
2023/08/15 12:04:55;;;;;;;6.25;3.03;;;24.40;65.60;;;;;;5052447;28;20539;-64
2023/08/15 12:07:20;;;;;;;5.88;2.58;;;24.30;65.60;;;;;;5052154;28;20175;-63
2023/08/15 12:09:49;;;;;;;6.45;2.90;;;24.30;65.70;;;;;;5050617;28;20182;-63
2023/08/15 12:12:19;;;;;;;6.38;2.55;;;24.30;65.80;;;;;;5052146;28;20525;-62
2023/08/15 12:14:44;;;;;;;8.20;3.22;;;24.30;66.00;;;;;;5052436;28;20175;-62
2023/08/15 12:17:10;;;;;;;4.28;3.15;;;24.20;66.20;;;;;;5051107;28;20302;-63
2023/08/15 12:19:35;;;;;;;6.00;2.67;;;24.20;66.30;;;;;;5052367;28;20172;-64
2023/08/15 12:22:02;;;;;;;6.13;2.78;;;24.10;66.30;;;;;;5052096;28;20179;-63
2023/08/15 12:24:27;;;;;;;7.68;2.85;;;24.20;66.30;;;;;;5051613;28;20178;-63
2023/08/15 12:26:53;;;;;;;4.78;2.58;;;24.20;66.40;;;;;;5052382;28;20562;-63
2023/08/15 12:29:18;;;;;;;4.65;3.13;;;24.30;66.20;;;;;;5051537;28;20305;-63
2023/08/15 12:31:44;;;;;;;5.50;2.88;;;24.30;65.90;;;;;;5054950;28;20175;-63
2023/08/15 12:34:10;;;;;;;3.78;2.63;;;24.40;65.80;;;;;;5055455;28;20175;-64
2023/08/15 12:36:35;;;;;;;5.45;2.85;;;24.40;65.60;;;;;;5055131;28;20203;-64
2023/08/15 12:39:01;;;;;;;5.22;2.95;;;24.50;65.40;;;;;;5055456;28;20167;-65
2023/08/15 12:41:26;;;;;;;5.25;2.92;;;24.50;65.30;;;;;;5055761;28;20210;-64
2023/08/15 12:43:52;;;;;;;4.03;2.72;;;24.50;65.50;;;;;;5054595;28;20717;-64